Time;durP1;ratioP1;P1;durP2;ratioP2;P2;SDS_P1;SDS_P2;PMS_P1;PMS_P2;Temp;Humidity;BMP_temperature;BMP_pressure;BME280_temperature;BME280_humidity;BME280_pressure;Samples;Min_cycle;Max_cycle;Signal;HPM_P1;HPM_P2
2021/06/03 08:10:17;;;;;;;1.48;1.38;;;23.90;40.50;;;26.39;30.28;101799.38;5172270;27;20221;-54
2021/06/03 08:12:43;;;;;;;1.60;1.50;;;24.10;40.60;;;26.88;29.49;101787.84;5171640;27;20171;-49
2021/06/03 08:15:11;;;;;;;1.30;1.20;;;24.20;40.40;;;27.18;29.04;101787.44;5171325;27;20099;-50
2021/06/03 08:17:38;;;;;;;1.50;1.40;;;24.30;40.20;;;27.42;28.53;101785.75;5171388;27;20046;-48
2021/06/03 08:20:21;;;;;;;1.60;1.50;;;24.30;40.10;;;27.59;28.71;101784.47;5171470;27;20050;-47
2021/06/03 08:22:47;;;;;;;1.70;1.48;;;24.40;40.00;;;27.75;28.17;101793.06;5171473;27;20038;-54
2021/06/03 08:25:15;;;;;;;1.60;1.50;;;24.40;39.90;;;27.86;27.90;101792.25;5171356;27;20049;-53
2021/06/03 08:27:41;;;;;;;1.98;1.40;;;24.40;39.80;;;27.97;27.60;101791.47;5171569;27;20138;-52
2021/06/03 08:30:11;;;;;;;1.40;1.30;;;24.50;39.70;;;28.02;27.73;101787.44;5171258;27;20050;-51
2021/06/03 08:32:38;;;;;;;1.50;1.40;;;24.60;39.60;;;28.11;27.58;101791.22;5171047;27;20077;-53
2021/06/03 08:35:05;;;;;;;1.52;1.42;;;24.60;39.50;;;28.16;27.33;101798.94;5171085;27;20083;-54
2021/06/03 08:37:30;;;;;;;1.63;1.52;;;24.60;39.50;;;28.20;27.46;101797.69;5170599;27;20058;-53
2021/06/03 08:39:56;;;;;;;2.25;1.40;;;24.60;40.00;;;28.24;27.46;101796.50;5170951;27;20049;-55
2021/06/03 08:42:22;;;;;;;1.65;1.23;;;24.70;39.50;;;28.27;27.34;101801.66;5171613;27;20049;-54
2021/06/03 08:44:48;;;;;;;1.42;1.33;;;24.70;39.40;;;28.27;27.06;101804.34;5152289;27;20050;-53
2021/06/03 08:47:14;;;;;;;1.55;1.45;;;24.70;39.40;;;28.31;27.25;101808.47;5170870;27;20970;-55
2021/06/03 08:49:40;;;;;;;1.35;1.25;;;24.70;39.40;;;28.29;27.06;101797.00;5170741;27;20410;-54
2021/06/03 08:52:07;;;;;;;1.50;1.40;;;24.70;39.40;;;28.30;26.86;101795.16;5170692;27;20541;-54
2021/06/03 08:54:39;;;;;;;1.33;1.23;;;24.70;39.40;;;28.33;27.26;101797.59;5170772;27;20046;-50
2021/06/03 08:57:07;;;;;;;1.60;1.50;;;24.70;39.40;;;28.33;26.80;101787.69;5171111;27;20117;-51
2021/06/03 08:59:33;;;;;;;2.53;1.50;;;24.70;39.40;;;28.37;26.66;101793.72;5170713;27;20091;-53
2021/06/03 09:01:59;;;;;;;1.50;1.40;;;24.70;39.40;;;28.33;26.77;101779.63;5171136;27;20043;-51
2021/06/03 09:04:24;;;;;;;1.50;1.40;;;24.80;39.40;;;28.38;26.91;101787.34;5171212;27;20043;-53
2021/06/03 09:06:50;;;;;;;1.67;1.30;;;24.70;39.30;;;28.37;26.86;101782.94;5170790;27;20050;-53
2021/06/03 09:09:25;;;;;;;1.70;1.60;;;24.70;39.30;;;28.39;26.92;101783.69;5149695;27;20057;-50
2021/06/03 09:12:15;;;;;;;1.48;1.38;;;24.80;39.40;;;28.42;26.87;101783.44;5157153;27;20137;-52
2021/06/03 09:14:42;;;;;;;1.98;1.40;;;24.80;39.30;;;28.47;26.90;101794.69;5157720;27;20043;-55
2021/06/03 09:17:12;;;;;;;2.63;1.40;;;24.90;39.20;;;28.49;26.49;101792.72;5157328;27;20068;-50
2021/06/03 09:19:54;;;;;;;1.70;1.60;;;24.80;39.20;;;28.49;26.71;101778.44;5156482;27;20050;-52
2021/06/03 09:22:38;;;;;;;1.65;1.55;;;24.90;39.20;;;28.51;27.04;101781.84;5137980;27;20045;-52
2021/06/03 09:25:33;;;;;;;1.77;1.63;;;24.90;39.20;;;28.52;26.81;101783.53;5156797;27;20043;-49
2021/06/03 09:28:26;;;;;;;1.60;1.50;;;24.90;39.20;;;28.52;26.69;101775.47;5155154;27;20443;-54
2021/06/03 09:31:01;;;;;;;1.63;1.52;;;24.90;39.20;;;28.53;26.78;101778.03;5156276;27;20038;-50
2021/06/03 09:33:44;;;;;;;1.42;1.33;;;24.90;39.10;;;28.51;26.77;101785.38;5156422;27;20087;-49
2021/06/03 09:36:14;;;;;;;1.63;1.52;;;24.90;39.10;;;28.52;26.71;101775.47;5156370;27;20046;-53
2021/06/03 09:39:11;;;;;;;1.92;1.55;;;24.90;39.10;;;28.57;26.83;101803.75;5156143;27;20057;-51
2021/06/03 09:41:43;;;;;;;1.73;1.60;;;24.90;39.10;;;28.56;26.52;101793.13;5156279;27;20054;-51
2021/06/03 09:44:13;;;;;;;1.60;1.50;;;24.90;39.10;;;28.54;26.50;101797.75;5156244;27;20227;-51
2021/06/03 09:46:43;;;;;;;2.38;1.42;;;24.90;39.10;;;28.54;26.40;101806.66;5155953;27;20068;-53
2021/06/03 09:49:17;;;;;;;2.00;1.90;;;24.90;39.10;;;28.54;26.85;101809.34;5120496;27;20489;-51
2021/06/03 09:51:46;;;;;;;1.75;1.60;;;24.90;39.20;;;28.51;26.51;101808.75;5136067;27;20463;-49
2021/06/03 09:54:20;;;;;;;1.58;1.48;;;24.90;39.20;;;28.51;26.50;101811.44;5156009;27;20047;-54
2021/06/03 09:56:53;;;;;;;1.90;1.70;;;24.90;39.20;;;28.49;26.88;101814.25;5155987;27;20047;-52
2021/06/03 09:59:35;;;;;;;2.13;1.88;;;24.90;39.20;;;28.50;26.68;101809.72;5156156;27;20058;-50
2021/06/03 10:02:18;;;;;;;1.55;1.45;;;24.90;39.20;;;28.49;26.74;101811.56;5156086;27;20043;-53
2021/06/03 10:04:49;;;;;;;1.50;1.40;;;24.90;39.20;;;28.48;26.80;101808.97;5155883;27;20070;-51
2021/06/03 10:07:23;;;;;;;1.63;1.52;;;24.80;39.20;;;28.48;26.80;101815.22;5153091;27;20463;-53
2021/06/03 10:10:10;;;;;;;1.70;1.60;;;24.80;39.20;;;28.44;26.54;101811.91;5155468;27;20043;-47
2021/06/03 10:12:47;;;;;;;1.60;1.50;;;24.80;39.20;;;28.43;26.74;101817.41;5155449;27;20047;-53
2021/06/03 10:15:15;;;;;;;1.67;1.58;;;24.90;39.20;;;28.45;26.53;101821.72;5134706;27;20059;-52
2021/06/03 10:18:02;;;;;;;1.70;1.60;;;24.80;39.20;;;28.42;26.94;101826.47;5155653;27;20438;-54
2021/06/03 10:20:47;;;;;;;1.63;1.52;;;24.80;39.20;;;28.43;26.68;101829.06;5155554;27;20042;-53
2021/06/03 10:23:18;;;;;;;1.70;1.60;;;24.80;39.20;;;28.41;26.71;101828.28;5154754;27;20399;-51
2021/06/03 10:25:46;;;;;;;;;;;24.80;39.20;;;28.50;26.84;101824.03;5137778;27;20070;-55
2021/06/03 10:28:16;;;;;;;1.58;1.48;;;24.80;39.30;;;28.45;26.42;101834.28;5136275;27;19922;-49
2021/06/03 10:30:58;;;;;;;1.40;1.30;;;24.80;39.20;;;28.37;26.50;101816.06;5155425;27;20057;-51
2021/06/03 10:33:28;;;;;;;1.85;1.65;;;24.80;39.20;;;28.39;26.51;101821.34;5136735;27;20050;-51
2021/06/03 10:36:01;;;;;;;1.65;1.52;;;24.80;39.20;;;28.36;26.74;101822.41;5155258;27;20119;-54
2021/06/03 10:38:27;;;;;;;1.90;1.70;;;24.80;39.30;;;28.37;26.82;101817.91;5155383;27;20058;-50
2021/06/03 10:41:13;;;;;;;1.40;1.30;;;24.80;39.20;;;28.35;27.02;101819.84;5155101;27;20086;-50
2021/06/03 10:43:39;;;;;;;1.58;1.45;;;24.80;39.30;;;28.34;26.76;101815.47;5155125;27;20075;-52
2021/06/03 10:46:08;;;;;;;1.52;1.42;;;24.80;39.20;;;28.34;26.73;101824.38;5155288;27;20485;-53
2021/06/03 10:48:34;;;;;;;1.60;1.50;;;24.80;39.20;;;28.36;26.46;101835.88;5154904;27;20133;-53
2021/06/03 10:51:06;;;;;;;1.63;1.50;;;24.80;39.20;;;28.34;26.69;101836.97;5136611;27;20053;-52
2021/06/03 10:53:32;;;;;;;1.58;1.48;;;24.80;39.30;;;28.29;26.86;101837.34;5155454;27;20043;-55
2021/06/03 10:56:07;;;;;;;1.70;1.60;;;24.80;39.30;;;28.33;26.93;101849.56;5119547;27;20057;-52
2021/06/03 10:58:37;;;;;;;1.45;1.35;;;24.80;39.30;;;28.32;26.69;101847.84;5155395;27;20115;-52
2021/06/03 11:01:13;;;;;;;1.70;1.60;;;24.80;39.30;;;28.33;26.58;101848.69;5155030;27;20117;-50
2021/06/03 11:03:51;;;;;;;1.60;1.50;;;24.80;39.20;;;28.32;26.85;101852.34;5154971;27;20491;-50
2021/06/03 11:06:23;;;;;;;1.70;1.60;;;24.80;39.30;;;28.32;26.70;101850.56;5154825;27;20057;-49
2021/06/03 11:08:54;;;;;;;1.77;1.67;;;24.80;39.20;;;28.36;26.66;101856.53;5155015;27;20129;-53
2021/06/03 11:11:20;;;;;;;2.17;1.98;;;24.80;39.30;;;28.37;26.83;101859.13;5154905;27;20054;-53
2021/06/03 11:13:46;;;;;;;1.60;1.50;;;24.80;39.20;;;28.38;26.65;101852.72;5154822;27;20050;-49
2021/06/03 11:16:23;;;;;;;1.67;1.58;;;24.80;39.20;;;28.36;26.48;101852.00;5154703;27;20039;-54
2021/06/03 11:18:49;;;;;;;1.60;1.50;;;24.80;39.20;;;28.40;26.69;101853.50;5155220;27;20078;-54
2021/06/03 11:21:36;;;;;;;2.28;2.08;;;24.80;39.10;;;28.38;26.64;101858.13;5154957;27;20093;-54
2021/06/03 11:24:20;;;;;;;1.58;1.48;;;24.80;39.20;;;28.37;26.58;101853.72;5154800;27;20047;-53
2021/06/03 11:26:56;;;;;;;2.47;1.60;;;24.80;39.20;;;28.37;26.66;101855.56;5154894;27;20043;-52
2021/06/03 11:29:33;;;;;;;1.67;1.58;;;24.80;39.20;;;28.37;26.52;101858.25;5154691;27;20059;-53
2021/06/03 11:32:04;;;;;;;2.10;1.90;;;24.80;39.20;;;28.37;26.57;101863.66;5154533;27;20068;-54
2021/06/03 11:34:44;;;;;;;2.45;1.50;;;24.80;39.20;;;28.32;26.52;101861.31;5136111;27;20387;-50
2021/06/03 11:37:36;;;;;;;1.70;1.60;;;24.80;39.20;;;28.34;26.86;101847.75;5154705;27;20505;-53
2021/06/03 11:40:08;;;;;;;1.40;1.30;;;24.70;39.20;;;28.33;26.66;101849.56;5154330;27;20050;-51
2021/06/03 11:42:46;;;;;;;1.58;1.48;;;24.80;39.30;;;28.32;26.85;101846.97;5154690;27;20047;-51
2021/06/03 11:45:27;;;;;;;1.83;1.60;;;24.80;39.20;;;28.31;26.78;101847.97;5154611;27;20053;-51
2021/06/03 11:47:55;;;;;;;;;;;24.70;39.20;;;28.46;26.68;101849.47;5136075;27;20483;-53
2021/06/03 11:50:21;;;;;;;1.60;1.50;;;24.70;39.20;;;28.40;26.38;101848.13;5154104;27;19915;-52
2021/06/03 11:52:56;;;;;;;1.75;1.65;;;24.80;39.20;;;28.35;26.66;101846.75;5154260;27;20478;-56
2021/06/03 11:55:41;;;;;;;1.70;1.60;;;24.80;39.20;;;28.34;26.57;101848.59;5154078;27;20065;-52
2021/06/03 11:58:37;;;;;;;2.60;1.77;;;24.80;39.20;;;28.33;26.63;101843.31;5154227;27;20058;-48
2021/06/03 12:01:05;;;;;;;1.50;1.40;;;24.80;39.30;;;28.34;26.54;101837.81;5154037;27;20038;-47
2021/06/03 12:03:40;;;;;;;1.50;1.40;;;24.80;39.20;;;28.31;26.75;101843.44;5154038;27;20050;-48
2021/06/03 12:06:23;;;;;;;1.52;1.42;;;24.70;39.20;;;28.31;26.85;101848.81;5154571;27;20047;-50
2021/06/03 12:08:55;;;;;;;1.73;1.63;;;24.80;39.20;;;28.26;26.79;101837.56;5135646;27;20051;-51
2021/06/03 12:11:25;;;;;;;1.50;1.40;;;24.70;39.20;;;28.27;26.73;101828.53;5135935;27;20047;-53
2021/06/03 12:14:19;;;;;;;1.70;1.60;;;24.70;39.30;;;28.30;26.61;101827.44;5135236;27;20081;-53
2021/06/03 12:17:04;;;;;;;1.70;1.60;;;24.70;39.30;;;28.24;26.52;101816.16;5154393;27;20117;-54
2021/06/03 12:19:36;;;;;;;1.58;1.48;;;24.70;39.30;;;28.28;26.50;101814.09;5133435;27;20043;-50
2021/06/03 12:22:07;;;;;;;2.08;1.92;;;24.70;39.30;;;28.27;26.73;101829.38;5154214;27;20043;-51
2021/06/03 12:24:43;;;;;;;2.45;1.58;;;24.70;39.30;;;28.24;26.73;101839.53;5153840;27;20475;-48
2021/06/03 12:27:20;;;;;;;1.70;1.60;;;24.70;39.40;;;28.24;26.69;101850.28;5154139;27;20498;-49
2021/06/03 12:29:47;;;;;;;1.52;1.42;;;24.70;39.40;;;28.23;26.64;101852.13;5153601;27;20103;-49
2021/06/03 12:32:15;;;;;;;1.52;1.42;;;24.70;39.40;;;28.19;26.49;101845.25;5153629;27;20493;-54
2021/06/03 12:34:41;;;;;;;1.67;1.48;;;24.70;39.40;;;28.18;26.77;101837.31;5153713;27;20355;-51
2021/06/03 12:37:32;;;;;;;1.50;1.40;;;24.70;39.40;;;28.20;26.77;101849.69;5153570;27;20054;-55
2021/06/03 12:39:58;;;;;;;1.60;1.50;;;24.70;39.40;;;28.21;26.83;101843.31;5153651;27;20055;-53
2021/06/03 12:42:29;;;;;;;1.58;1.48;;;24.60;39.40;;;28.19;26.63;101836.34;5135023;27;20047;-49
2021/06/03 12:45:04;;;;;;;2.60;1.40;;;24.60;39.40;;;28.20;26.82;101829.97;5154526;27;20057;-51
2021/06/03 12:47:33;;;;;;;1.55;1.45;;;24.60;39.40;;;28.20;26.68;101829.97;5157293;27;20038;-49
2021/06/03 12:50:09;;;;;;;1.50;1.40;;;24.60;39.40;;;28.19;26.85;101822.91;5157420;27;20042;-52
2021/06/03 12:52:35;;;;;;;1.50;1.40;;;24.60;39.40;;;28.19;26.87;101828.28;5157297;27;20082;-50
2021/06/03 12:55:01;;;;;;;1.50;1.40;;;24.70;39.40;;;28.20;26.63;101827.28;5156944;27;20487;-53
2021/06/03 12:57:27;;;;;;;1.50;1.40;;;24.60;39.40;;;28.19;26.63;101826.44;5157219;27;20050;-51
2021/06/03 12:59:55;;;;;;;1.60;1.50;;;24.60;39.40;;;28.18;26.74;101827.41;5157204;27;20046;-52
2021/06/03 13:02:27;;;;;;;1.50;1.40;;;24.70;39.40;;;28.20;26.93;101833.53;5138283;27;20474;-52
2021/06/03 13:04:53;;;;;;;1.85;1.75;;;24.70;39.40;;;28.22;26.59;101842.34;5157147;27;20046;-54
2021/06/03 13:07:36;;;;;;;1.80;1.70;;;24.60;39.30;;;28.18;26.94;101843.53;5138242;27;20395;-54
2021/06/03 13:10:09;;;;;;;1.98;1.77;;;24.70;39.50;;;28.19;26.76;101847.94;5156769;27;20114;-52
2021/06/03 13:12:51;;;;;;;1.52;1.42;;;24.70;39.40;;;28.21;26.66;101848.69;5138868;27;20046;-52
2021/06/03 13:15:19;;;;;;;1.40;1.30;;;24.70;39.40;;;28.24;26.51;101852.97;5156914;27;20053;-50
2021/06/03 13:17:53;;;;;;;2.00;1.85;;;24.70;39.30;;;28.24;26.74;101842.22;5156718;27;20095;-47
2021/06/03 13:20:24;;;;;;;1.80;1.70;;;24.70;39.30;;;28.23;26.75;101833.31;5156524;27;20070;-52
2021/06/03 13:22:59;;;;;;;1.80;1.70;;;24.70;39.40;;;28.27;26.93;101832.06;5156707;27;20047;-50
2021/06/03 13:25:28;;;;;;;2.20;1.63;;;24.70;39.30;;;28.27;26.60;101815.94;5156750;27;20086;-49
2021/06/03 13:27:54;;;;;;;1.60;1.50;;;24.70;39.30;;;28.27;26.82;101807.03;5156609;27;20051;-50
2021/06/03 13:30:27;;;;;;;1.38;1.30;;;24.70;39.20;;;28.29;26.85;101813.13;5156578;27;20042;-53
2021/06/03 13:33:12;;;;;;;1.92;1.83;;;24.70;39.20;;;28.30;26.72;101801.41;5156836;27;20047;-53
2021/06/03 13:35:47;;;;;;;1.67;1.58;;;24.80;39.30;;;28.32;26.63;101807.50;5156364;27;20091;-54
2021/06/03 13:38:14;;;;;;;2.10;1.90;;;24.80;39.30;;;28.32;26.71;101802.13;5156385;27;20046;-50
2021/06/03 13:40:43;;;;;;;1.52;1.42;;;24.80;39.30;;;28.34;26.75;101794.78;5156380;27;20046;-50
2021/06/03 13:43:16;;;;;;;1.50;1.40;;;24.80;39.30;;;28.34;26.74;101800.16;5156184;27;20043;-52
2021/06/03 13:45:45;;;;;;;1.40;1.30;;;24.80;39.30;;;28.36;26.79;101794.69;5156916;27;20047;-55
2021/06/03 13:48:30;;;;;;;1.60;1.50;;;24.70;39.20;;;28.33;26.71;101786.84;5156101;27;20054;-52
2021/06/03 13:51:05;;;;;;;1.58;1.48;;;24.70;39.40;;;28.35;26.57;101784.88;5156339;27;20066;-47
2021/06/03 13:53:40;;;;;;;1.70;1.60;;;24.70;39.30;;;28.34;26.59;101780.50;5156007;27;20039;-53
2021/06/03 13:56:24;;;;;;;1.40;1.30;;;24.70;39.30;;;28.35;26.53;101784.88;5155929;27;20051;-52
2021/06/03 13:59:01;;;;;;;1.60;1.50;;;24.80;39.30;;;28.35;26.76;101774.13;5154188;27;20487;-53
2021/06/03 14:01:33;;;;;;;1.77;1.67;;;24.70;39.40;;;28.37;26.73;101766.81;5155953;27;20102;-52
2021/06/03 14:04:04;;;;;;;1.80;1.70;;;24.70;39.30;;;28.35;26.59;101755.28;5133808;27;20054;-53
2021/06/03 14:06:36;;;;;;;1.85;1.60;;;24.70;39.40;;;28.36;26.49;101748.94;5156461;27;20070;-55
2021/06/03 14:09:18;;;;;;;2.17;1.98;;;24.80;39.60;;;28.37;26.59;101742.59;5156155;27;20043;-55
2021/06/03 14:12:02;;;;;;;1.60;1.50;;;24.70;39.60;;;28.33;26.76;101730.38;5155743;27;20150;-51
2021/06/03 14:14:36;;;;;;;1.73;1.63;;;24.70;39.40;;;28.35;26.91;101731.97;5156063;27;20047;-50
2021/06/03 14:17:07;;;;;;;1.65;1.55;;;24.70;39.50;;;28.33;26.69;101730.38;5155696;27;20503;-49
2021/06/03 14:19:48;;;;;;;1.50;1.40;;;24.70;39.50;;;28.31;26.85;101726.94;5156429;27;20089;-49
2021/06/03 14:22:28;;;;;;;1.83;1.73;;;24.70;39.80;;;28.32;26.97;101717.88;5137201;27;20471;-50
2021/06/03 14:24:53;;;;;;;1.70;1.60;;;24.70;39.50;;;28.34;26.80;101718.63;5155856;27;20043;-55
2021/06/03 14:27:37;;;;;;;1.60;1.50;;;24.70;40.00;;;28.31;26.95;101717.03;5155443;27;20049;-50
2021/06/03 14:30:21;;;;;;;2.10;1.85;;;24.70;39.60;;;28.30;26.92;101717.16;5155459;27;20127;-52
2021/06/03 14:32:51;;;;;;;1.50;1.40;;;24.70;39.60;;;28.31;26.59;101725.09;5155527;27;20467;-50
2021/06/03 14:35:41;;;;;;;1.60;1.50;;;24.70;39.60;;;28.26;27.05;101717.41;5155210;27;20054;-54
2021/06/03 14:38:11;;;;;;;1.55;1.45;;;24.70;39.90;;;28.27;26.93;101723.66;5155635;27;20046;-51
2021/06/03 14:40:44;;;;;;;1.98;1.80;;;24.70;39.60;;;28.28;26.81;101736.09;5155412;27;20082;-53
2021/06/03 14:43:20;;;;;;;1.70;1.60;;;24.70;39.70;;;28.25;26.68;101734.53;5155207;27;20039;-50
2021/06/03 14:46:02;;;;;;;1.88;1.77;;;24.70;39.80;;;28.28;26.99;101733.41;5155433;27;20456;-52
2021/06/03 14:48:28;;;;;;;;;;;24.70;39.80;;;28.38;26.78;101734.38;5137120;27;20050;-54
2021/06/03 14:50:58;;;;;;;1.70;1.60;;;24.70;39.80;;;28.32;26.65;101736.72;5155478;27;19938;-52
2021/06/03 14:53:27;;;;;;;1.83;1.67;;;24.70;39.80;;;28.25;27.01;101747.97;5155111;27;20403;-55
2021/06/03 14:55:56;;;;;;;1.70;1.58;;;24.70;39.80;;;28.24;26.99;101731.97;5135104;27;20046;-52
2021/06/03 14:58:23;;;;;;;1.90;1.80;;;24.70;39.80;;;28.26;27.09;101751.50;5155003;27;20088;-52
2021/06/03 15:00:56;;;;;;;2.08;1.80;;;24.70;39.90;;;28.22;26.74;101744.69;5155046;27;20046;-55
2021/06/03 15:03:23;;;;;;;2.00;1.80;;;24.60;39.80;;;28.24;27.04;101745.41;5155006;27;20049;-49
2021/06/03 15:05:50;;;;;;;3.38;1.50;;;24.60;39.80;;;28.20;26.76;101742.09;5154966;27;20046;-49
2021/06/03 15:08:16;;;;;;;2.80;1.73;;;24.70;39.90;;;28.20;26.79;101741.22;5154365;27;20093;-55
2021/06/03 15:10:45;;;;;;;1.77;1.67;;;24.70;40.10;;;28.21;26.85;101748.34;5154933;27;20042;-55
2021/06/03 15:13:18;;;;;;;2.55;2.00;;;24.60;40.50;;;28.16;27.01;101727.19;5154743;27;20122;-50
2021/06/03 15:15:44;;;;;;;1.73;1.63;;;24.60;39.90;;;28.19;26.88;101742.22;5135341;27;20467;-55
2021/06/03 15:18:10;;;;;;;1.88;1.60;;;24.60;40.00;;;28.21;27.17;101742.97;5119228;27;20054;-52
2021/06/03 15:20:39;;;;;;;1.73;1.60;;;24.60;40.00;;;28.19;26.95;101739.53;5154961;27;20139;-52
2021/06/03 15:23:10;;;;;;;1.77;1.67;;;24.60;40.00;;;28.18;27.11;101738.66;5154599;27;20043;-51
2021/06/03 15:25:37;;;;;;;1.77;1.67;;;24.60;40.00;;;28.20;27.00;101743.91;5155001;27;20069;-53
2021/06/03 15:28:04;;;;;;;2.10;1.88;;;24.60;40.00;;;28.21;27.04;101743.81;5154597;27;20042;-53
2021/06/03 15:30:36;;;;;;;1.70;1.60;;;24.60;40.00;;;28.20;26.91;101742.09;5154550;27;20074;-51
2021/06/03 15:33:02;;;;;;;1.75;1.60;;;24.60;40.10;;;28.22;27.27;101747.38;5153961;27;20379;-49
2021/06/03 15:35:32;;;;;;;3.05;1.80;;;24.60;40.00;;;28.21;27.23;101746.50;5154642;27;20110;-54
2021/06/03 15:37:59;;;;;;;2.40;1.75;;;24.70;40.10;;;28.22;27.16;101756.28;5154421;27;20501;-53
2021/06/03 15:40:27;;;;;;;1.98;1.80;;;24.60;40.10;;;28.20;26.97;101754.69;5154603;27;20479;-52
2021/06/03 15:42:52;;;;;;;1.80;1.70;;;24.60;40.00;;;28.20;26.97;101755.56;5154373;27;20087;-54
2021/06/03 15:45:20;;;;;;;1.95;1.70;;;24.60;40.10;;;28.21;27.14;101757.25;5154097;27;20047;-53
2021/06/03 15:47:49;;;;;;;1.80;1.70;;;24.60;40.10;;;28.21;26.95;101759.09;5154749;27;20054;-53
2021/06/03 15:50:24;;;;;;;2.63;1.88;;;24.60;40.10;;;28.19;27.19;101766.44;5134138;27;20066;-55
2021/06/03 15:52:51;;;;;;;1.60;1.50;;;24.60;40.10;;;28.18;27.07;101764.72;5154595;27;20039;-51
2021/06/03 15:55:20;;;;;;;1.70;1.60;;;24.60;40.10;;;28.20;27.38;101765.44;5154489;27;20047;-50
2021/06/03 15:57:47;;;;;;;2.25;2.00;;;24.60;40.60;;;28.15;27.17;101756.88;5134155;27;20043;-52
2021/06/03 16:00:20;;;;;;;2.15;1.83;;;24.60;40.90;;;28.17;27.04;101755.78;5154464;27;20074;-52
2021/06/03 16:02:46;;;;;;;2.10;1.90;;;24.60;40.80;;;28.20;27.05;101750.19;5154693;27;20460;-55
2021/06/03 16:05:13;;;;;;;1.88;1.77;;;24.60;40.40;;;28.16;27.18;101740.63;5154372;27;20555;-53
2021/06/03 16:07:39;;;;;;;3.03;1.80;;;24.60;40.80;;;28.15;27.14;101746.13;5153777;27;20081;-50
2021/06/03 16:10:06;;;;;;;2.40;1.90;;;24.60;40.30;;;28.17;27.52;101749.56;5153935;27;20049;-52
2021/06/03 16:12:34;;;;;;;2.05;1.85;;;24.60;41.20;;;28.13;27.14;101742.72;5154197;27;20122;-47
2021/06/03 16:15:02;;;;;;;2.13;1.92;;;24.60;40.30;;;28.13;27.48;101754.31;5135281;27;20039;-52
2021/06/03 16:17:28;;;;;;;1.90;1.80;;;24.60;40.40;;;28.15;27.34;101754.19;5153892;27;20047;-51
2021/06/03 16:19:53;;;;;;;2.25;2.05;;;24.60;41.10;;;28.13;27.25;101751.63;5154609;27;20055;-49
2021/06/03 16:22:20;;;;;;;2.25;2.05;;;24.60;40.60;;;28.12;27.24;101752.63;5157863;27;20049;-50
2021/06/03 16:24:46;;;;;;;2.08;1.88;;;24.60;40.80;;;28.13;27.47;101751.63;5157528;27;20043;-50
2021/06/03 16:27:12;;;;;;;1.98;1.80;;;24.60;40.50;;;28.15;27.43;101752.38;5139332;27;20070;-53
2021/06/03 16:29:38;;;;;;;2.10;2.00;;;24.60;40.60;;;28.12;27.36;101749.94;5157295;27;20129;-54
2021/06/03 16:32:04;;;;;;;3.65;2.17;;;24.60;40.50;;;28.16;27.62;101751.38;5157679;27;20050;-47
2021/06/03 16:34:30;;;;;;;2.00;1.90;;;24.60;40.80;;;28.14;27.33;101752.50;5157735;27;20051;-50
2021/06/03 16:36:57;;;;;;;2.00;1.80;;;24.60;40.70;;;28.12;27.67;101744.56;5137673;27;20043;-52
2021/06/03 16:39:23;;;;;;;2.10;2.00;;;24.60;40.60;;;28.13;27.37;101746.25;5138711;27;20086;-50
2021/06/03 16:41:50;;;;;;;2.20;2.00;;;24.60;40.60;;;28.09;27.48;101740.25;5157582;27;20099;-51
2021/06/03 16:44:15;;;;;;;2.42;2.13;;;24.50;40.70;;;28.13;27.72;101746.25;5157137;27;20134;-51
2021/06/03 16:46:41;;;;;;;2.17;2.05;;;24.50;40.70;;;28.11;27.34;101744.66;5157165;27;20043;-48
2021/06/03 16:49:07;;;;;;;2.42;2.10;;;24.50;40.60;;;28.10;27.65;101735.75;5138552;27;20051;-51
2021/06/03 16:51:34;;;;;;;2.88;2.20;;;24.50;40.70;;;28.09;27.60;101742.94;5157379;27;20043;-47
2021/06/03 16:54:01;;;;;;;2.22;2.03;;;24.50;41.20;;;28.09;27.67;101737.56;5137667;27;20043;-47
2021/06/03 16:56:30;;;;;;;2.38;2.17;;;24.50;40.70;;;28.04;27.84;101736.22;5121455;27;20058;-51
2021/06/03 16:58:56;;;;;;;4.45;2.35;;;24.50;40.80;;;28.08;27.68;101786.06;5138550;27;20047;-49
2021/06/03 17:01:22;;;;;;;2.60;2.20;;;24.50;40.80;;;28.04;27.43;101816.88;5138631;27;20041;-52
2021/06/03 17:03:48;;;;;;;2.60;2.40;;;24.50;40.80;;;28.06;27.51;101834.59;5156873;27;20058;-51
2021/06/03 17:06:15;;;;;;;3.33;2.28;;;24.50;40.80;;;28.06;27.67;101820.28;5156842;27;20050;-52
2021/06/03 17:08:41;;;;;;;2.08;1.98;;;24.50;40.80;;;28.04;27.77;101828.47;5157059;27;20047;-47
2021/06/03 17:11:08;;;;;;;2.03;1.88;;;24.50;40.90;;;28.00;27.48;101834.19;5157322;27;20468;-52
2021/06/03 17:13:34;;;;;;;1.88;1.77;;;24.50;40.80;;;28.01;27.72;101857.44;5156684;27;20451;-52
2021/06/03 17:16:01;;;;;;;3.40;2.00;;;24.50;40.90;;;28.00;27.58;101861.09;5156671;27;20051;-50
2021/06/03 17:18:27;;;;;;;2.33;2.13;;;24.50;40.80;;;27.95;27.71;101855.22;5138736;27;20103;-47
2021/06/03 17:20:58;;;;;;;1.88;1.77;;;24.50;40.80;;;27.99;27.88;101868.31;5156558;27;20045;-54
2021/06/03 17:23:29;;;;;;;2.85;1.92;;;24.40;40.90;;;27.96;27.62;101881.13;5157040;27;20046;-50
2021/06/03 17:25:58;;;;;;;2.13;1.93;;;24.40;40.90;;;27.98;27.45;101890.78;5156960;27;20039;-52
2021/06/03 17:28:26;;;;;;;2.20;1.80;;;24.40;40.90;;;27.95;27.54;101882.09;5156730;27;20054;-51
2021/06/03 17:30:55;;;;;;;1.95;1.80;;;24.40;41.00;;;27.91;27.68;101890.34;5156104;27;20069;-52
2021/06/03 17:33:21;;;;;;;1.98;1.80;;;24.40;41.50;;;27.88;27.56;101887.03;5157089;27;20087;-53
2021/06/03 17:35:48;;;;;;;1.90;1.80;;;24.30;41.00;;;27.87;27.83;101883.50;5157034;27;20074;-49
2021/06/03 17:38:20;;;;;;;2.53;2.10;;;24.30;41.00;;;27.82;27.92;101877.63;5156349;27;20050;-54
2021/06/03 17:40:49;;;;;;;1.85;1.75;;;24.20;41.00;;;27.83;27.88;101892.78;5156992;27;20100;-51
2021/06/03 17:43:19;;;;;;;2.08;1.88;;;24.20;41.00;;;27.79;27.89;101883.22;5156305;27;20073;-50
2021/06/03 17:45:45;;;;;;;1.90;1.80;;;24.20;41.10;;;27.81;27.97;101899.22;5120552;27;20039;-52
2021/06/03 17:48:18;;;;;;;2.28;2.08;;;24.20;41.10;;;27.79;27.89;101890.44;5137867;27;20047;-51
2021/06/03 17:50:47;;;;;;;2.38;2.17;;;24.20;41.20;;;27.74;27.96;101896.16;5137595;27;20491;-50
2021/06/03 17:53:14;;;;;;;1.90;1.80;;;24.20;41.20;;;27.75;28.08;101897.88;5156102;27;20047;-51
2021/06/03 17:55:45;;;;;;;2.58;2.13;;;24.10;41.10;;;27.70;28.00;101892.84;5156073;27;20050;-51
2021/06/03 17:58:14;;;;;;;2.88;2.00;;;24.10;41.20;;;27.72;28.15;101882.81;5156441;27;20050;-52
2021/06/03 18:00:41;;;;;;;2.42;2.22;;;24.10;41.30;;;27.62;27.72;101870.22;5137708;27;20141;-47
2021/06/03 18:03:09;;;;;;;3.75;2.15;;;24.10;41.40;;;27.64;28.18;101885.22;5156293;27;20506;-47
2021/06/03 18:05:41;;;;;;;2.20;2.00;;;24.10;41.40;;;27.61;27.98;101893.50;5155892;27;20054;-50
2021/06/03 18:08:09;;;;;;;2.15;1.95;;;24.00;41.30;;;27.60;28.14;101888.25;5137303;27;20440;-52
2021/06/03 18:10:39;;;;;;;2.20;2.00;;;24.00;41.40;;;27.59;27.91;101898.16;5137267;27;20141;-51
2021/06/03 18:13:08;;;;;;;2.45;1.80;;;24.00;41.40;;;27.59;28.08;101902.66;5136088;27;20142;-53
2021/06/03 18:15:34;;;;;;;2.40;2.20;;;24.00;41.40;;;27.58;28.22;101901.78;5135734;27;20088;-54
2021/06/03 18:18:02;;;;;;;3.00;2.15;;;24.00;41.50;;;27.53;28.11;101899.47;5137157;27;20111;-51
2021/06/03 18:20:30;;;;;;;2.10;1.90;;;23.90;41.40;;;27.50;28.20;101897.00;5155302;27;20549;-54
2021/06/03 18:22:57;;;;;;;2.20;1.70;;;23.90;41.40;;;27.49;28.05;101889.06;5136462;27;20111;-54
2021/06/03 18:25:26;;;;;;;1.70;1.60;;;23.90;41.50;;;27.49;28.20;101889.91;5135571;27;20412;-54
2021/06/03 18:27:54;;;;;;;2.40;2.20;;;23.90;41.50;;;27.48;28.20;101885.53;5155538;27;20043;-52
2021/06/03 18:30:25;;;;;;;2.08;1.77;;;23.90;41.60;;;27.43;28.29;101878.75;5155256;27;20099;-53
2021/06/03 18:32:54;;;;;;;2.00;1.80;;;23.90;41.60;;;27.45;28.13;101874.13;5155857;27;20046;-49
2021/06/03 18:35:23;;;;;;;2.80;2.10;;;23.80;41.60;;;27.43;28.29;101868.91;5136251;27;20580;-50
2021/06/03 18:37:49;;;;;;;2.40;2.20;;;23.80;41.70;;;27.41;28.20;101872.66;5155282;27;20475;-54
2021/06/03 18:40:17;;;;;;;2.20;2.00;;;23.80;41.60;;;27.41;28.37;101873.50;5155192;27;20106;-49